Skip Navigation Links
NOAA logo - Click to go to the NOAA homepage
NOAA's National Weather Service
Alaska Aviation Weather Unit
  NWS logo - Click to go to the NWS homepage
Left Navbar Graphic     21 AKDT = 05 GMT

   
NOAA is celebrating 200 years of science, service, and stewardship. Visit the NOAA 200th celebration Web site to learn more.
USA.gov is the U.S. Government's official Web portal to all Federal, state and local government Web resources and services.
Facebook
NWS on Facebook

Important Change Regarding the AAWU Web Presence

 

Over the last several months, the AAWU has been working to navigate its webpages to a nationally supported server. Security, as well as other needs, have necessitated the change.  In the process, we have made an effort to enhance the functionality of our website, as well as some of our products. As of June 27, 2017, aawu.arh.noaa.gov will be discontinued. The new AAWU web address is weather.gov/aawu. It is now live and will run in-parallel with the old site until it is discontinued. Please send any feedback or questions regarding the new webpages to nws.ar.aawu.webauthors@noaa.gov.  Thank you for your patience during this time of transition.
AAWU Home :: Display TAF Add Bookmark
TAF PACD 260307Z 2603/2624 14018G30KT P6SM VCSH SCT005 OVC010
      TEMPO 2603/2606 OVC004
     FM260600 16018G25KT P6SM -SHRA SCT005 OVC015
     FM261200 18011G22KT P6SM SCT015 BKN025=
METAR PACD 252353Z 14034G42KT 6SM -RA BR SCT005 OVC012 09/09 A2963=

METAR PACD 260053Z 15030G39KT 6SM -RA BR SCT005 BKN012 OVC060 10/10
     A2962=

PACD 260138Z AUTO 14025G33KT 5SM -RA BR FEW005 SCT010 OVC070 09/09
A2963=

PACD 260148Z AUTO 14025G32KT 6SM -RA BR SCT006 BKN009 OVC065 09/09
A2964=

METAR PACD 260153Z AUTO 14025G32KT 5SM -RA BR BKN005 BKN016 OVC065 09/09
     A2963=

PACD 260251Z AUTO 13018G29KT 10SM OVC004 09/09 A2963=

METAR PACD 260253Z AUTO 14018G29KT 10SM OVC004 09/09 A2964=

METAR PACD 260353Z AUTO 14018G26KT 5SM -RA BR OVC003 09/09 A2963=

METAR PACD 260453Z AUTO 14023G30KT 3SM -RA BR OVC002 09/09 A2962=

PACD 260501Z AUTO 15025G32KT 2 1/2SM -RA BR OVC003 09/09 A2962=

PACD 260509Z AUTO 15021G32KT 4SM BR OVC003 09/09 A2961=


NOAA's National Weather Service
Alaska Aviation Weather Unit
6930 Sand Lake Road
Anchorage, AK 99502-1845
Disclaimer
Credits
Glossary
Privacy Policy
About Us
Career Opportunities
Contact AAWU Internet Services Site last modified: April, 17th 2012